Time;durP1;ratioP1;P1;durP2;ratioP2;P2;SDS_P1;SDS_P2;PMS_P1;PMS_P2;Temp;Humidity;BMP_temperature;BMP_pressure;BME280_temperature;BME280_humidity;BME280_pressure;Samples;Min_cycle;Max_cycle;Signal;HPM_P1;HPM_P2
2020/12/12 06:02:35;;;;;;;14.20;1.65;;;;;;;;;;5081134;28;20372;-61
2020/12/12 06:05:03;;;;;;;11.40;1.75;;;;;;;;;;5085178;28;20032;-60
2020/12/12 06:07:30;;;;;;;14.93;3.17;;;;;;;;;;5082522;28;20054;-60
2020/12/12 06:10:00;;;;;;;12.43;1.80;;;;;;;;;;5077446;28;20581;-60
2020/12/12 06:12:27;;;;;;;17.23;2.20;;;;;;;;;;5073118;28;20539;-60
2020/12/12 06:14:54;;;;;;;16.42;2.40;;;;;;;;;;5072402;28;20110;-59
2020/12/12 06:17:30;;;;;;;15.85;2.47;;;;;;;;;;5069366;28;20017;-59
2020/12/12 06:19:58;;;;;;;11.23;2.10;;;;;;;;;;5072431;28;20053;-60
2020/12/12 06:22:25;;;;;;;20.73;2.05;;;;;;;;;;5072278;28;20037;-59
2020/12/12 06:25:02;;;;;;;14.30;2.22;;;;;;;;;;5072390;28;20013;-60
2020/12/12 06:27:31;;;;;;;11.40;2.17;;;;;;;;;;5072432;28;20036;-60
2020/12/12 06:29:58;;;;;;;16.98;3.70;;;;;;;;;;5071488;28;20052;-61
2020/12/12 06:32:24;;;;;;;11.60;1.88;;;;;;;;;;5068547;28;20032;-60
2020/12/12 06:34:52;;;;;;;14.15;2.33;;;;;;;;;;5085391;28;20028;-60
2020/12/12 06:37:31;;;;;;;11.02;2.20;;;;;;;;;;5082364;28;20113;-60
2020/12/12 06:39:57;;;;;;;15.20;2.08;;;;;;;;;;5085445;28;20440;-60
2020/12/12 06:42:30;;;;;;;22.48;2.67;;;;;;;;;;5079698;28;20036;-61
2020/12/12 06:44:57;;;;;;;17.90;2.40;;;;;;;;;;5069599;28;20071;-60
2020/12/12 06:47:37;;;;;;;12.90;2.15;;;;;;;;;;5068006;28;20056;-60
2020/12/12 06:50:11;;;;;;;13.75;2.15;;;;;;;;;;5082456;28;20071;-60
2020/12/12 06:52:37;;;;;;;18.33;3.10;;;;;;;;;;5071622;28;20051;-61
2020/12/12 06:55:05;;;;;;;23.40;2.78;;;;;;;;;;5071530;28;20025;-60
2020/12/12 06:57:35;;;;;;;18.38;1.50;;;;;;;;;;5070744;28;20054;-60
2020/12/12 07:00:01;;;;;;;13.30;2.28;;;;;;;;;;5070943;28;20028;-62
2020/12/12 07:02:27;;;;;;;13.88;2.05;;;;;;;;;;5077307;28;20048;-60
2020/12/12 07:04:54;;;;;;;12.43;2.42;;;;;;;;;;5071742;28;20388;-60
2020/12/12 07:07:20;;;;;;;19.52;2.10;;;;;;;;;;5071496;28;20024;-62
2020/12/12 07:09:46;;;;;;;21.35;2.47;;;;;;;;;;5070046;28;20024;-60
2020/12/12 07:12:12;;;;;;;17.80;2.10;;;;;;;;;;5069396;28;20043;-60
2020/12/12 07:14:38;;;;;;;22.23;3.47;;;;;;;;;;5070216;28;20482;-60
2020/12/12 07:17:05;;;;;;;22.15;3.28;;;;;;;;;;5072843;28;20405;-61
2020/12/12 07:19:36;;;;;;;24.63;3.50;;;;;;;;;;5070483;28;20024;-60
2020/12/12 07:22:03;;;;;;;25.45;3.95;;;;;;;;;;5069525;28;20028;-61
2020/12/12 07:24:29;;;;;;;17.70;3.00;;;;;;;;;;5069912;28;20035;-60
2020/12/12 07:26:55;;;;;;;31.23;2.88;;;;;;;;;;5069780;28;20036;-60
2020/12/12 07:29:21;;;;;;;13.50;1.73;;;;;;;;;;5071474;28;20037;-60
2020/12/12 07:31:48;;;;;;;17.70;2.72;;;;;;;;;;5073017;28;20037;-60
2020/12/12 07:34:19;;;;;;;13.00;1.83;;;;;;;;;;5070835;28;20017;-60
2020/12/12 07:36:45;;;;;;;11.48;1.52;;;;;;;;;;5071176;28;20048;-60
2020/12/12 07:39:12;;;;;;;9.07;1.60;;;;;;;;;;5070252;28;20021;-60
2020/12/12 07:41:44;;;;;;;11.15;2.28;;;;;;;;;;5069345;28;20029;-60
2020/12/12 07:44:10;;;;;;;19.58;2.88;;;;;;;;;;5070693;28;20025;-60
2020/12/12 07:46:40;;;;;;;15.02;1.70;;;;;;;;;;5071244;28;20026;-60
2020/12/12 07:49:07;;;;;;;15.30;1.75;;;;;;;;;;5069987;28;20036;-60
2020/12/12 07:51:33;;;;;;;17.38;2.38;;;;;;;;;;5069821;28;20044;-60
2020/12/12 07:54:00;;;;;;;20.80;2.28;;;;;;;;;;5070070;28;20090;-60
2020/12/12 07:56:29;;;;;;;16.23;2.80;;;;;;;;;;5069912;28;20060;-60
2020/12/12 07:59:03;;;;;;;12.43;2.08;;;;;;;;;;5072440;28;20059;-60
2020/12/12 08:01:29;;;;;;;13.60;2.05;;;;;;;;;;5070897;28;20040;-60
2020/12/12 08:03:55;;;;;;;15.85;2.40;;;;;;;;;;5068363;28;20447;-59
2020/12/12 08:06:25;;;;;;;12.80;1.65;;;;;;;;;;5069090;28;20028;-59
2020/12/12 08:08:55;;;;;;;12.32;2.38;;;;;;;;;;5068851;28;20021;-59
2020/12/12 08:11:21;;;;;;;18.20;2.40;;;;;;;;;;5070936;28;20036;-59
2020/12/12 08:13:48;;;;;;;19.17;2.40;;;;;;;;;;5068010;28;20059;-59
2020/12/12 08:18:43;;;;;;;27.15;3.13;;;;;;;;;;5068090;28;20051;-61
2020/12/12 08:21:13;;;;;;;26.00;2.67;;;;;;;;;;5067558;28;20028;-59
2020/12/12 08:23:40;;;;;;;17.70;2.35;;;;;;;;;;5067690;28;20017;-60
2020/12/12 08:26:07;;;;;;;12.88;2.20;;;;;;;;;;5071328;28;20025;-60
2020/12/12 08:28:34;;;;;;;18.73;2.17;;;;;;;;;;5069896;28;20055;-60
2020/12/12 08:31:10;;;;;;;17.35;1.90;;;;;;;;;;5068099;28;20033;-60
2020/12/12 08:33:37;;;;;;;12.25;2.45;;;;;;;;;;5068279;28;20400;-60
2020/12/12 08:36:19;;;;;;;17.73;2.85;;;;;;;;;;5067323;28;20112;-60
2020/12/12 08:38:55;;;;;;;17.55;2.25;;;;;;;;;;5054427;28;20029;-59
2020/12/12 08:41:27;;;;;;;19.90;3.65;;;;;;;;;;5068589;28;20132;-59
2020/12/12 08:43:53;;;;;;;11.73;2.13;;;;;;;;;;5070993;28;20037;-60
2020/12/12 08:46:19;;;;;;;21.08;2.15;;;;;;;;;;5067662;28;20032;-60
2020/12/12 08:48:45;;;;;;;21.48;2.10;;;;;;;;;;5063773;28;20051;-65
2020/12/12 08:51:12;;;;;;;11.13;1.67;;;;;;;;;;5058354;28;20037;-61
2020/12/12 08:53:39;;;;;;;18.67;2.78;;;;;;;;;;5067827;28;20025;-61
2020/12/12 08:56:06;;;;;;;22.20;3.65;;;;;;;;;;5070517;28;20474;-61
2020/12/12 08:58:33;;;;;;;28.55;3.25;;;;;;;;;;5065085;28;20021;-61
2020/12/12 09:01:14;;;;;;;19.67;3.80;;;;;;;;;;5059601;28;20040;-62
2020/12/12 09:03:53;;;;;;;13.10;1.98;;;;;;;;;;5056126;28;20440;-60
2020/12/12 09:06:19;;;;;;;16.27;2.45;;;;;;;;;;5056238;28;20025;-61
2020/12/12 09:08:45;;;;;;;13.75;2.13;;;;;;;;;;5064444;28;20028;-60
2020/12/12 09:11:16;;;;;;;11.82;2.05;;;;;;;;;;5067247;28;20060;-61
2020/12/12 09:13:42;;;;;;;11.00;2.50;;;;;;;;;;5055920;28;20040;-60
2020/12/12 09:16:09;;;;;;;16.08;3.13;;;;;;;;;;5055377;28;20135;-60
2020/12/12 09:18:48;;;;;;;20.55;2.15;;;;;;;;;;5064352;28;20086;-60
2020/12/12 09:21:14;;;;;;;13.63;1.85;;;;;;;;;;5066302;28;20085;-60
2020/12/12 09:23:41;;;;;;;15.88;1.80;;;;;;;;;;5068739;28;20370;-60
2020/12/12 09:26:08;;;;;;;9.18;2.03;;;;;;;;;;5069399;28;20033;-61
2020/12/12 09:28:34;;;;;;;13.60;2.00;;;;;;;;;;5067210;28;20054;-60
2020/12/12 09:31:01;;;;;;;18.67;2.40;;;;;;;;;;5059134;28;20470;-60
2020/12/12 09:33:27;;;;;;;13.35;1.70;;;;;;;;;;5063387;28;20018;-61
2020/12/12 09:35:53;;;;;;;20.40;2.20;;;;;;;;;;5053852;28;20044;-60
2020/12/12 09:38:20;;;;;;;15.18;2.28;;;;;;;;;;5052820;28;20021;-60
2020/12/12 09:40:50;;;;;;;18.75;2.38;;;;;;;;;;5055451;28;20029;-60
2020/12/12 09:43:19;;;;;;;12.90;2.08;;;;;;;;;;5055107;28;20408;-60
2020/12/12 09:45:46;;;;;;;13.15;1.88;;;;;;;;;;5054838;28;20067;-60
2020/12/12 09:48:16;;;;;;;11.48;1.45;;;;;;;;;;5059271;28;20041;-61
2020/12/12 09:50:42;;;;;;;11.88;2.15;;;;;;;;;;5055006;28;20138;-60
2020/12/12 09:53:10;;;;;;;11.52;1.42;;;;;;;;;;5053382;28;20017;-60
2020/12/12 09:55:37;;;;;;;12.60;1.50;;;;;;;;;;5065422;28;20039;-60
2020/12/12 09:58:09;;;;;;;8.18;1.02;;;;;;;;;;5065551;28;20032;-60
2020/12/12 10:00:36;;;;;;;8.07;1.38;;;;;;;;;;5060090;28;20508;-60
2020/12/12 10:03:04;;;;;;;14.75;1.98;;;;;;;;;;5062762;28;20021;-59
2020/12/12 10:05:30;;;;;;;18.52;2.40;;;;;;;;;;5054568;28;20033;-60
2020/12/12 10:07:57;;;;;;;24.95;2.65;;;;;;;;;;5063283;28;20573;-59
2020/12/12 10:10:24;;;;;;;21.73;3.35;;;;;;;;;;5051809;28;20051;-60
2020/12/12 10:12:50;;;;;;;20.48;2.50;;;;;;;;;;5056768;28;20021;-60
2020/12/12 10:15:17;;;;;;;27.65;3.20;;;;;;;;;;5061565;28;20503;-61
2020/12/12 10:17:44;;;;;;;15.25;2.20;;;;;;;;;;5060851;28;20021;-59
2020/12/12 10:20:10;;;;;;;18.60;2.67;;;;;;;;;;5064915;28;20139;-59
2020/12/12 10:22:36;;;;;;;17.67;2.47;;;;;;;;;;5062060;28;20481;-59
2020/12/12 10:25:03;;;;;;;19.52;2.53;;;;;;;;;;5061696;28;20404;-60
2020/12/12 10:27:29;;;;;;;22.00;3.15;;;;;;;;;;5060637;28;20017;-60
2020/12/12 10:29:55;;;;;;;17.92;2.20;;;;;;;;;;5056891;28;20490;-60
2020/12/12 10:32:21;;;;;;;18.10;3.38;;;;;;;;;;5064318;28;20108;-60
2020/12/12 10:34:47;;;;;;;22.25;2.55;;;;;;;;;;5060960;28;20052;-60
2020/12/12 10:37:13;;;;;;;17.05;2.60;;;;;;;;;;5061621;28;20035;-60
2020/12/12 10:39:46;;;;;;;18.92;3.38;;;;;;;;;;5066390;28;20062;-60
2020/12/12 10:42:13;;;;;;;24.10;4.05;;;;;;;;;;5064925;28;20493;-60
2020/12/12 10:44:39;;;;;;;21.92;4.63;;;;;;;;;;5066704;28;20023;-60
2020/12/12 10:47:05;;;;;;;20.25;4.20;;;;;;;;;;5068954;28;20437;-60
2020/12/12 10:49:31;;;;;;;20.92;3.63;;;;;;;;;;5065472;28;20032;-60
2020/12/12 10:51:57;;;;;;;24.52;2.97;;;;;;;;;;5064687;28;20044;-60
2020/12/12 10:54:28;;;;;;;16.08;2.95;;;;;;;;;;5065047;28;20051;-60
2020/12/12 10:56:54;;;;;;;14.88;1.92;;;;;;;;;;5065813;28;20083;-60
2020/12/12 10:59:20;;;;;;;11.48;1.70;;;;;;;;;;5066299;28;20033;-60
2020/12/12 11:01:51;;;;;;;11.45;1.65;;;;;;;;;;5055299;28;20535;-60
2020/12/12 11:04:17;;;;;;;9.68;1.70;;;;;;;;;;5059361;28;20029;-62
2020/12/12 11:06:43;;;;;;;7.80;1.42;;;;;;;;;;5064948;28;20025;-60
2020/12/12 11:09:09;;;;;;;8.55;1.60;;;;;;;;;;5060129;28;20032;-60
2020/12/12 11:11:38;;;;;;;9.55;1.35;;;;;;;;;;5067081;28;20469;-59
2020/12/12 11:14:04;;;;;;;7.30;1.80;;;;;;;;;;5065103;28;20464;-60
2020/12/12 11:16:30;;;;;;;16.17;2.45;;;;;;;;;;5065293;28;20024;-62
2020/12/12 11:18:56;;;;;;;20.23;3.00;;;;;;;;;;5065794;28;20440;-60
2020/12/12 11:21:23;;;;;;;30.25;3.88;;;;;;;;;;5066717;28;20033;-61
2020/12/12 11:23:50;;;;;;;18.15;3.05;;;;;;;;;;5067812;28;20116;-61
2020/12/12 11:26:16;;;;;;;15.00;2.83;;;;;;;;;;5055786;28;20025;-60
2020/12/12 11:28:44;;;;;;;22.13;3.75;;;;;;;;;;5065222;28;20116;-60
2020/12/12 11:31:11;;;;;;;22.27;4.60;;;;;;;;;;5063150;28;20044;-60
2020/12/12 11:33:39;;;;;;;21.83;3.17;;;;;;;;;;5064214;28;20420;-60
2020/12/12 11:48:49;;;;;;;16.98;2.40;;;;;;;;;;5062632;28;20025;-59
2020/12/12 11:51:16;;;;;;;15.45;2.30;;;;;;;;;;5066390;28;20554;-60
2020/12/12 11:53:42;;;;;;;17.25;2.10;;;;;;;;;;5064425;28;20017;-60
2020/12/12 11:56:08;;;;;;;16.92;3.05;;;;;;;;;;5065462;28;20021;-60
2020/12/12 11:58:34;;;;;;;22.55;2.47;;;;;;;;;;5064177;28;20374;-60
2020/12/12 12:01:00;;;;;;;22.77;2.70;;;;;;;;;;5062614;28;20053;-60
2020/12/12 12:03:27;;;;;;;20.73;4.00;;;;;;;;;;5060369;28;20108;-60
2020/12/12 12:05:53;;;;;;;14.00;2.53;;;;;;;;;;5054775;28;20040;-60
2020/12/12 12:08:40;;;;;;;15.52;2.80;;;;;;;;;;5053686;28;20584;-60
2020/12/12 12:11:16;;;;;;;15.18;2.47;;;;;;;;;;5079482;28;20032;-60
2020/12/12 12:13:42;;;;;;;12.32;2.70;;;;;;;;;;5076802;28;20024;-60
2020/12/12 12:16:09;;;;;;;12.05;2.28;;;;;;;;;;5073456;28;20416;-59
2020/12/12 12:18:36;;;;;;;18.17;1.92;;;;;;;;;;5078057;28;20027;-59
2020/12/12 12:21:03;;;;;;;22.13;3.83;;;;;;;;;;5077663;28;20040;-59
2020/12/12 12:23:29;;;;;;;16.17;2.20;;;;;;;;;;5075428;28;20116;-59
2020/12/12 12:25:55;;;;;;;20.77;3.05;;;;;;;;;;5076580;28;20056;-61
2020/12/12 12:28:22;;;;;;;14.93;1.95;;;;;;;;;;5058084;28;20553;-59
2020/12/12 12:30:48;;;;;;;18.15;2.42;;;;;;;;;;5059478;28;20060;-60
2020/12/12 12:33:14;;;;;;;13.93;1.92;;;;;;;;;;5069313;28;20028;-59
2020/12/12 12:35:40;;;;;;;16.35;2.13;;;;;;;;;;5053122;28;20037;-61
2020/12/12 12:38:06;;;;;;;12.57;2.17;;;;;;;;;;5061162;28;20024;-62
2020/12/12 12:40:33;;;;;;;13.68;2.70;;;;;;;;;;5067975;28;20109;-59
2020/12/12 12:42:59;;;;;;;10.07;1.48;;;;;;;;;;5075697;28;20032;-59
2020/12/12 12:45:25;;;;;;;8.13;1.60;;;;;;;;;;5075183;28;20103;-60
2020/12/12 12:47:51;;;;;;;12.32;1.52;;;;;;;;;;5071259;28;20050;-59
2020/12/12 12:50:18;;;;;;;11.68;1.30;;;;;;;;;;5073433;28;20906;-59
2020/12/12 12:52:44;;;;;;;15.25;1.45;;;;;;;;;;5069510;28;20120;-59
2020/12/12 12:55:11;;;;;;;14.48;2.55;;;;;;;;;;5075728;28;20221;-59
2020/12/12 12:57:38;;;;;;;20.63;2.60;;;;;;;;;;5067987;28;20024;-59
2020/12/12 13:00:05;;;;;;;12.93;2.58;;;;;;;;;;5067103;28;20016;-59
2020/12/12 13:02:31;;;;;;;15.25;2.42;;;;;;;;;;5067651;28;20549;-59
2020/12/12 13:04:57;;;;;;;14.05;2.85;;;;;;;;;;5078537;28;20032;-60
2020/12/12 13:07:23;;;;;;;14.68;2.83;;;;;;;;;;5067287;28;20521;-59
2020/12/12 13:09:49;;;;;;;15.75;2.35;;;;;;;;;;5058039;28;20033;-59
2020/12/12 13:12:16;;;;;;;16.50;2.42;;;;;;;;;;5053377;28;20072;-59
2020/12/12 13:14:42;;;;;;;14.95;1.92;;;;;;;;;;5067096;28;20524;-59
2020/12/12 13:17:09;;;;;;;23.02;3.28;;;;;;;;;;5053824;28;20055;-59
2020/12/12 13:19:42;;;;;;;19.35;2.30;;;;;;;;;;5065201;28;20404;-60
2020/12/12 13:22:11;;;;;;;20.02;2.60;;;;;;;;;;5058074;28;20029;-60
2020/12/12 13:24:37;;;;;;;18.27;2.65;;;;;;;;;;5055792;28;20029;-59
2020/12/12 13:27:04;;;;;;;12.07;2.25;;;;;;;;;;5055471;28;20428;-59
2020/12/12 13:32:34;;;;;;;22.13;3.45;;;;;;;;;;5020798;28;20037;-59
2020/12/12 13:35:00;;;;;;;21.77;2.38;;;;;;;;;;5034358;28;20075;-60
2020/12/12 13:37:27;;;;;;;21.83;3.42;;;;;;;;;;5026561;28;20042;-59
2020/12/12 13:39:53;;;;;;;23.58;2.92;;;;;;;;;;5009846;28;20038;-60
2020/12/12 13:42:19;;;;;;;19.65;2.90;;;;;;;;;;5022398;28;20096;-59
2020/12/12 13:44:46;;;;;;;15.52;2.40;;;;;;;;;;5029222;28;20545;-59
2020/12/12 13:47:12;;;;;;;15.18;2.45;;;;;;;;;;5011646;28;20046;-59
2020/12/12 13:49:39;;;;;;;25.77;3.47;;;;;;;;;;5032171;28;20042;-59
2020/12/12 13:52:05;;;;;;;17.63;2.72;;;;;;;;;;5031500;28;20411;-60
2020/12/12 13:54:32;;;;;;;24.17;2.60;;;;;;;;;;5031953;28;20040;-59
2020/12/12 13:56:58;;;;;;;21.70;3.70;;;;;;;;;;5030820;28;20041;-59
2020/12/12 13:59:24;;;;;;;19.88;3.00;;;;;;;;;;5027698;28;20037;-59
2020/12/12 14:01:51;;;;;;;24.02;3.13;;;;;;;;;;5038465;28;20040;-62
2020/12/12 14:04:17;;;;;;;27.85;2.88;;;;;;;;;;5063830;28;20037;-72
2020/12/12 14:06:47;;;;;;;26.95;2.63;;;;;;;;;;5065874;28;20025;-69
2020/12/12 14:25:09;;;;;;;11.07;1.92;;;;;;;;;;5070465;28;20481;-70
2020/12/12 14:30:22;;;;;;;11.18;1.50;;;;;;;;;;5070473;28;20082;-70
2020/12/12 14:32:49;;;;;;;20.40;2.20;;;;;;;;;;5070401;28;20035;-73
2020/12/12 14:35:15;;;;;;;10.55;1.73;;;;;;;;;;5072610;28;20033;-64
2020/12/12 14:37:41;;;;;;;20.23;2.63;;;;;;;;;;5072666;28;20035;-61
2020/12/12 14:40:08;;;;;;;17.42;2.97;;;;;;;;;;5070205;28;20029;-61
2020/12/12 14:42:34;;;;;;;14.18;1.60;;;;;;;;;;5062895;28;20448;-63
2020/12/12 14:45:00;;;;;;;19.80;2.47;;;;;;;;;;5071048;28;20024;-57
2020/12/12 14:47:27;;;;;;;19.77;3.20;;;;;;;;;;5071470;28;20738;-59
2020/12/12 14:49:53;;;;;;;16.52;2.42;;;;;;;;;;5072474;28;20501;-61
2020/12/12 14:52:20;;;;;;;16.38;2.65;;;;;;;;;;5069439;28;20041;-57
2020/12/12 14:54:46;;;;;;;16.58;3.00;;;;;;;;;;5071935;28;20017;-60
2020/12/12 14:57:12;;;;;;;11.57;2.20;;;;;;;;;;5069285;28;20061;-61
2020/12/12 14:59:38;;;;;;;14.73;1.98;;;;;;;;;;5062844;28;20032;-59
2020/12/12 15:02:04;;;;;;;13.18;2.78;;;;;;;;;;5072365;28;20121;-58
2020/12/12 15:04:31;;;;;;;16.45;2.45;;;;;;;;;;5071974;28;20059;-58
2020/12/12 15:06:57;;;;;;;17.60;2.20;;;;;;;;;;5069777;28;20043;-58
2020/12/12 15:09:23;;;;;;;18.65;3.15;;;;;;;;;;5069945;28;20039;-58
2020/12/12 15:11:51;;;;;;;15.55;1.90;;;;;;;;;;5069967;28;20033;-59
2020/12/12 15:14:17;;;;;;;19.88;2.67;;;;;;;;;;5072375;28;20433;-56
2020/12/12 15:16:43;;;;;;;16.27;2.08;;;;;;;;;;5071284;28;20442;-56
2020/12/12 15:19:09;;;;;;;14.52;2.35;;;;;;;;;;5069481;28;20017;-59
2020/12/12 15:21:36;;;;;;;16.60;1.95;;;;;;;;;;5069833;28;20059;-56
2020/12/12 15:24:02;;;;;;;28.83;3.10;;;;;;;;;;5069329;28;20036;-59
2020/12/12 15:26:34;;;;;;;14.38;1.88;;;;;;;;;;5070930;28;20035;-58
2020/12/12 15:29:04;;;;;;;11.38;1.65;;;;;;;;;;5068811;28;20110;-57
2020/12/12 15:31:33;;;;;;;15.32;2.25;;;;;;;;;;5071458;28;20044;-58
2020/12/12 15:34:00;;;;;;;17.33;2.20;;;;;;;;;;5069470;28;20108;-59
2020/12/12 15:36:27;;;;;;;11.38;1.90;;;;;;;;;;5069699;28;20060;-58
2020/12/12 15:38:53;;;;;;;10.75;1.60;;;;;;;;;;5069335;28;20029;-58
2020/12/12 15:41:22;;;;;;;13.90;2.45;;;;;;;;;;5070483;28;20034;-57
2020/12/12 15:43:49;;;;;;;12.30;1.70;;;;;;;;;;5070328;28;20025;-58
2020/12/12 15:46:19;;;;;;;20.48;2.67;;;;;;;;;;5069038;28;20493;-58
2020/12/12 15:48:46;;;;;;;8.98;1.30;;;;;;;;;;5069076;28;20094;-58
2020/12/12 15:51:12;;;;;;;18.75;2.50;;;;;;;;;;5069013;28;20044;-57
2020/12/12 15:53:38;;;;;;;13.95;2.00;;;;;;;;;;5068927;28;20027;-59
2020/12/12 15:56:04;;;;;;;15.85;1.85;;;;;;;;;;5072688;28;20049;-59
2020/12/12 15:58:30;;;;;;;14.85;2.33;;;;;;;;;;5068973;28;20056;-58
2020/12/12 16:00:57;;;;;;;24.48;2.58;;;;;;;;;;5068379;28;20048;-59
2020/12/12 16:03:25;;;;;;;16.25;2.22;;;;;;;;;;5062343;28;20085;-58
2020/12/12 16:05:53;;;;;;;11.32;1.30;;;;;;;;;;5054589;28;20115;-51
2020/12/12 16:08:19;;;;;;;18.10;2.67;;;;;;;;;;5052996;28;20135;-59
2020/12/12 16:10:45;;;;;;;13.05;1.88;;;;;;;;;;5055123;28;20123;-57
2020/12/12 16:13:12;;;;;;;13.38;2.95;;;;;;;;;;5051068;28;20032;-56
2020/12/12 16:15:38;;;;;;;16.70;2.67;;;;;;;;;;5051722;28;20067;-58
2020/12/12 16:18:04;;;;;;;13.98;2.65;;;;;;;;;;5048013;28;21626;-63
2020/12/12 16:20:30;;;;;;;14.43;2.03;;;;;;;;;;5051309;28;20040;-60
2020/12/12 16:22:56;;;;;;;17.15;2.45;;;;;;;;;;5051316;28;20032;-57
2020/12/12 16:25:22;;;;;;;10.55;2.35;;;;;;;;;;5051556;28;20025;-57
2020/12/12 16:27:48;;;;;;;15.60;2.10;;;;;;;;;;5050796;28;20479;-57
2020/12/12 16:30:20;;;;;;;15.25;1.65;;;;;;;;;;5049867;28;20406;-59
2020/12/12 16:32:50;;;;;;;12.43;2.42;;;;;;;;;;5050273;28;20488;-58
2020/12/12 16:35:16;;;;;;;14.85;2.00;;;;;;;;;;5049617;28;20020;-54
2020/12/12 16:37:43;;;;;;;22.88;2.40;;;;;;;;;;5049496;28;20033;-57
2020/12/12 16:40:09;;;;;;;14.38;2.22;;;;;;;;;;5051491;28;20551;-60
2020/12/12 16:42:35;;;;;;;17.42;2.08;;;;;;;;;;5055762;28;20025;-61
2020/12/12 16:45:01;;;;;;;17.98;2.25;;;;;;;;;;5054517;28;20410;-58
2020/12/12 16:47:27;;;;;;;9.38;1.60;;;;;;;;;;5055624;28;20448;-59
2020/12/12 16:49:53;;;;;;;8.07;1.40;;;;;;;;;;5059001;28;20112;-59
2020/12/12 16:52:19;;;;;;;15.25;1.90;;;;;;;;;;5056230;28;20310;-59
2020/12/12 16:54:46;;;;;;;12.65;2.13;;;;;;;;;;5055061;28;20533;-55
2020/12/12 16:57:12;;;;;;;17.70;2.42;;;;;;;;;;5054859;28;20029;-60
2020/12/12 16:59:39;;;;;;;16.15;2.20;;;;;;;;;;5053769;28;20017;-59
2020/12/12 17:02:05;;;;;;;17.27;1.88;;;;;;;;;;5049712;28;20048;-59
2020/12/12 17:04:31;;;;;;;12.75;1.73;;;;;;;;;;5050579;28;20028;-57
2020/12/12 17:06:58;;;;;;;15.48;1.70;;;;;;;;;;5059564;28;20119;-60
2020/12/12 17:09:24;;;;;;;19.15;2.53;;;;;;;;;;5068463;28;20031;-56
2020/12/12 17:11:50;;;;;;;9.68;1.55;;;;;;;;;;5067690;28;20736;-55
2020/12/12 17:14:17;;;;;;;12.07;1.48;;;;;;;;;;5065756;28;20433;-64
2020/12/12 17:16:43;;;;;;;10.63;1.30;;;;;;;;;;5061113;28;20025;-55
2020/12/12 17:19:10;;;;;;;8.05;1.20;;;;;;;;;;5064756;28;20501;-58
2020/12/12 17:21:45;;;;;;;10.50;2.03;;;;;;;;;;5065674;28;20073;-57
2020/12/12 17:24:12;;;;;;;10.80;1.20;;;;;;;;;;5066027;28;20027;-60
2020/12/12 17:26:39;;;;;;;10.73;1.88;;;;;;;;;;5065639;28;20024;-59
2020/12/12 17:29:06;;;;;;;8.68;1.50;;;;;;;;;;5065356;28;20074;-60
2020/12/12 17:31:36;;;;;;;7.85;1.50;;;;;;;;;;5067854;28;20044;-59
2020/12/12 17:34:03;;;;;;;15.18;2.35;;;;;;;;;;5065222;28;20074;-57
2020/12/12 17:36:29;;;;;;;12.02;1.83;;;;;;;;;;5064758;28;20043;-56
2020/12/12 17:38:56;;;;;;;10.93;1.63;;;;;;;;;;5063565;28;20025;-59
2020/12/12 17:41:22;;;;;;;7.47;1.33;;;;;;;;;;5064921;28;20023;-57
2020/12/12 17:43:49;;;;;;;13.63;1.67;;;;;;;;;;5068183;28;20112;-55
2020/12/12 17:46:18;;;;;;;15.65;2.63;;;;;;;;;;5060638;28;20020;-64
2020/12/12 17:48:44;;;;;;;7.32;1.48;;;;;;;;;;5062548;28;20036;-66
2020/12/12 17:51:13;;;;;;;16.00;1.52;;;;;;;;;;5066695;28;20035;-64
2020/12/12 17:53:40;;;;;;;13.07;2.88;;;;;;;;;;5072811;28;20032;-66
2020/12/12 17:56:06;;;;;;;13.70;1.58;;;;;;;;;;5061338;28;20033;-65
2020/12/12 17:58:32;;;;;;;13.00;1.38;;;;;;;;;;5066423;28;20115;-63
2020/12/12 18:00:59;;;;;;;12.57;2.45;;;;;;;;;;5058415;28;20193;-65
2020/12/12 18:03:25;;;;;;;8.20;1.50;;;;;;;;;;5055577;28;20453;-67
2020/12/12 18:05:52;;;;;;;13.95;1.92;;;;;;;;;;5050858;28;20509;-65
2020/12/12 18:08:18;;;;;;;13.98;2.47;;;;;;;;;;5076002;28;20035;-58
2020/12/12 18:10:45;;;;;;;15.75;2.05;;;;;;;;;;5077310;28;20036;-56
2020/12/12 18:13:11;;;;;;;13.43;2.35;;;;;;;;;;5076600;28;20124;-60
2020/12/12 18:15:37;;;;;;;8.75;2.42;;;;;;;;;;5061186;28;20032;-59
2020/12/12 18:18:04;;;;;;;9.85;2.47;;;;;;;;;;5053064;28;20041;-59
2020/12/12 18:20:30;;;;;;;15.85;1.90;;;;;;;;;;5066160;28;20043;-59
2020/12/12 18:22:56;;;;;;;8.15;1.85;;;;;;;;;;5068508;28;20432;-58
2020/12/12 18:25:22;;;;;;;9.02;1.80;;;;;;;;;;5065756;28;20028;-58
2020/12/12 18:27:50;;;;;;;13.60;2.63;;;;;;;;;;5063912;28;20059;-57
2020/12/12 18:30:16;;;;;;;13.40;2.63;;;;;;;;;;5064945;28;20016;-59
2020/12/12 18:32:43;;;;;;;13.18;1.70;;;;;;;;;;5066408;28;20051;-58
2020/12/12 18:35:10;;;;;;;14.40;2.50;;;;;;;;;;5069369;28;20021;-59
2020/12/12 18:37:38;;;;;;;11.27;2.42;;;;;;;;;;5065885;28;20398;-58
2020/12/12 18:40:09;;;;;;;8.88;1.48;;;;;;;;;;5065066;28;20107;-58
2020/12/12 18:42:35;;;;;;;13.70;2.85;;;;;;;;;;5065207;28;20048;-59
2020/12/12 18:45:01;;;;;;;18.25;1.95;;;;;;;;;;5066307;28;20032;-59
2020/12/12 18:47:28;;;;;;;11.57;1.98;;;;;;;;;;5067572;28;20474;-58
2020/12/12 18:49:54;;;;;;;14.00;1.90;;;;;;;;;;5068480;28;20032;-58
2020/12/12 18:52:21;;;;;;;15.70;1.98;;;;;;;;;;5065720;28;20493;-59
2020/12/12 18:54:47;;;;;;;13.90;3.03;;;;;;;;;;5065449;28;20503;-59
2020/12/12 18:57:15;;;;;;;11.68;1.95;;;;;;;;;;5065709;28;20037;-60
2020/12/12 18:59:41;;;;;;;13.85;2.22;;;;;;;;;;5070923;28;20036;-56
2020/12/12 19:02:08;;;;;;;21.92;6.65;;;;;;;;;;5064076;28;20063;-59
2020/12/12 19:04:34;;;;;;;17.08;5.75;;;;;;;;;;5068035;28;20412;-62
2020/12/12 19:07:00;;;;;;;18.15;4.15;;;;;;;;;;5070425;28;20400;-59
2020/12/12 19:09:26;;;;;;;22.58;3.88;;;;;;;;;;5070921;28;20031;-58
2020/12/12 19:11:52;;;;;;;19.58;3.35;;;;;;;;;;5065248;28;20035;-57
2020/12/12 19:14:18;;;;;;;21.25;3.25;;;;;;;;;;5064710;28;20546;-59
2020/12/12 19:16:44;;;;;;;14.73;3.38;;;;;;;;;;5063212;28;20393;-57
2020/12/12 19:19:10;;;;;;;27.23;4.88;;;;;;;;;;5057877;28;20021;-59
2020/12/12 19:21:37;;;;;;;15.15;3.25;;;;;;;;;;5060526;28;20024;-59
2020/12/12 19:24:03;;;;;;;18.33;4.07;;;;;;;;;;5065703;28;20416;-60
2020/12/12 19:26:30;;;;;;;21.90;4.03;;;;;;;;;;5053034;28;20400;-59
2020/12/12 19:28:57;;;;;;;17.88;4.00;;;;;;;;;;5065307;28;20024;-58
2020/12/12 19:31:23;;;;;;;16.95;4.03;;;;;;;;;;5060026;28;20068;-58
2020/12/12 19:33:49;;;;;;;26.20;4.07;;;;;;;;;;5060005;28;20414;-58
2020/12/12 19:36:20;;;;;;;25.33;4.25;;;;;;;;;;5060417;28;20028;-59
2020/12/12 19:38:47;;;;;;;22.98;4.57;;;;;;;;;;5065249;28;20040;-58
2020/12/12 19:41:13;;;;;;;18.48;5.00;;;;;;;;;;5064789;28;20033;-59
2020/12/12 19:43:39;;;;;;;16.15;4.15;;;;;;;;;;5062680;28;20027;-59
2020/12/12 19:46:05;;;;;;;16.50;4.20;;;;;;;;;;5058402;28;20060;-59
2020/12/12 19:48:31;;;;;;;19.55;3.75;;;;;;;;;;5059551;28;20113;-59
2020/12/12 19:50:57;;;;;;;19.77;4.03;;;;;;;;;;5053630;28;20029;-59
2020/12/12 19:53:23;;;;;;;17.30;4.13;;;;;;;;;;5064052;28;20071;-63
2020/12/12 19:55:49;;;;;;;21.33;4.55;;;;;;;;;;5062378;28;20028;-57
2020/12/12 19:58:15;;;;;;;17.30;4.55;;;;;;;;;;5059645;28;20527;-59
2020/12/12 20:00:41;;;;;;;15.68;4.30;;;;;;;;;;5060349;28;20123;-59
2020/12/12 20:03:08;;;;;;;21.80;4.50;;;;;;;;;;5064102;28;20037;-58
2020/12/12 20:05:35;;;;;;;18.75;4.25;;;;;;;;;;5054974;28;20032;-58
2020/12/12 20:08:01;;;;;;;18.65;4.78;;;;;;;;;;5067391;28;20044;-58
2020/12/12 20:10:28;;;;;;;13.73;3.88;;;;;;;;;;5060662;28;20017;-58
2020/12/12 20:12:54;;;;;;;19.60;4.00;;;;;;;;;;5059343;28;20044;-59
2020/12/12 20:15:20;;;;;;;22.77;4.63;;;;;;;;;;5063532;28;20603;-59
2020/12/12 20:17:46;;;;;;;19.00;5.32;;;;;;;;;;5061698;28;20455;-61
2020/12/12 20:20:12;;;;;;;17.33;4.35;;;;;;;;;;5064293;28;20089;-60
2020/12/12 20:22:38;;;;;;;21.42;4.75;;;;;;;;;;5062678;28;20077;-59
2020/12/12 20:25:04;;;;;;;20.38;4.75;;;;;;;;;;5057348;28;20457;-59
2020/12/12 20:27:30;;;;;;;14.63;3.75;;;;;;;;;;5057831;28;20143;-59
2020/12/12 20:29:57;;;;;;;17.27;4.43;;;;;;;;;;5052750;28;20079;-61
2020/12/12 20:32:23;;;;;;;17.08;3.97;;;;;;;;;;5061780;28;20041;-57
2020/12/12 20:34:49;;;;;;;15.25;4.75;;;;;;;;;;5061521;28;20028;-62
2020/12/12 20:37:15;;;;;;;18.60;4.13;;;;;;;;;;5058944;28;20033;-62
2020/12/12 20:39:41;;;;;;;12.45;4.05;;;;;;;;;;5060535;28;20013;-59
2020/12/12 20:42:07;;;;;;;12.55;3.85;;;;;;;;;;5063807;28;20504;-59
2020/12/12 20:44:33;;;;;;;21.77;5.05;;;;;;;;;;5059838;28;20016;-59
2020/12/12 20:46:59;;;;;;;17.58;5.38;;;;;;;;;;5062160;28;20039;-59
2020/12/12 20:49:25;;;;;;;14.75;5.13;;;;;;;;;;5058905;28;20027;-59
2020/12/12 20:51:52;;;;;;;18.15;4.93;;;;;;;;;;5055079;28;20029;-59
2020/12/12 20:54:18;;;;;;;19.98;4.70;;;;;;;;;;5053437;28;20047;-59
2020/12/12 20:56:44;;;;;;;20.30;5.18;;;;;;;;;;5061094;28;20036;-58
2020/12/12 20:59:10;;;;;;;12.88;4.30;;;;;;;;;;5063709;28;20036;-58
2020/12/12 21:01:37;;;;;;;31.33;15.43;;;;;;;;;;5059647;28;20135;-66
2020/12/12 21:04:03;;;;;;;25.35;12.75;;;;;;;;;;5063982;28;20025;-61
2020/12/12 21:06:34;;;;;;;16.25;7.93;;;;;;;;;;5053322;28;20112;-59
2020/12/12 21:09:00;;;;;;;17.35;4.03;;;;;;;;;;5064802;28;20130;-59